Aultman, Pennsylvania
Current Conditions -  °F | °C
As of 6:35 AM on Saturday 01 Nov 2014 (Local Time) from KIDI Reporting Station
Overcast Overcast  
Wind Chill: 35°   Ceiling: 3200
Heat Index: 39°   Visibility: 9mi
Dew Point: 37°   Wind: 6mph
Humidity: 93%   Direction: 40°NE
Pressure: 29.95"   Gusts: NA
Location:  40.56°N, 79.26°W
Report Text: KIDI 011035Z AUTO 04005KT 9SM SCT024 BKN032 OVC049 04/03 A2995 RMK A01
Loading
Personal Weather Stations






























Interactive Weather Map
Tropical Storm Tracking
New forecast layout! Learn more

10-Day Weather Forecast

Advertisements
Track Severe Weather on mobile